This is the latest recevied weather packets stored in our database for station/object K6POO-1. If no packets are shown the sender has not sent any weather packets the latest 10 day(s).
| Time | Temp. | Humidity | Pressure | Rain* | Wind** | Luminosity | Snow |
|---|---|---|---|---|---|---|---|
| 1777584211 | 21.11° C | 49% | 1014.5 hPa | 0 mm | - | 876 W/m² | - |
| 1777583910 | 20.56° C | 49% | 1014.6 hPa | 0 mm | - | 885 W/m² | - |
| 1777583606 | 20° C | 53% | 1014.5 hPa | 0 mm | - | 895 W/m² | - |
| 1777583305 | 19.44° C | 52% | 1014.7 hPa | 0 mm | - | 904 W/m² | - |
| 1777583000 | 20° C | 53% | 1014.6 hPa | 0 mm | - | 912 W/m² | - |
| 1777582698 | 20° C | 56% | 1014.4 hPa | 0 mm | - | 921 W/m² | - |
| 1777582398 | 20° C | 54% | 1014.7 hPa | 0 mm | - | 926 W/m² | - |
| 1777582097 | 19.44° C | 57% | 1014.7 hPa | 0 mm | - | 933 W/m² | - |
| 1777581797 | 18.89° C | 59% | 1014.7 hPa | 0 mm | - | 940 W/m² | - |
| 1777581496 | 18.89° C | 60% | 1014.8 hPa | 0 mm | - | 948 W/m² | - |
| 1777581191 | 18.89° C | 60% | 1014.8 hPa | 0 mm | - | 953 W/m² | - |
| 1777580886 | 18.89° C | 58% | 1014.9 hPa | 0 mm | - | 958 W/m² | - |
| 1777580580 | 17.78° C | 62% | 1014.9 hPa | 0 mm | - | 963 W/m² | - |
| 1777580276 | 17.78° C | 63% | 1015 hPa | 0 mm | - | 967 W/m² | - |
| 1777579974 | 17.78° C | 64% | 1014.9 hPa | 0 mm | - | 972 W/m² | - |
| 1777579669 | 17.78° C | 64% | 1015.1 hPa | 0 mm | - | 973 W/m² | - |
| 1777579368 | 17.78° C | 65% | 1015.3 hPa | 0 mm | - | 975 W/m² | - |
| 1777579063 | 18.33° C | 63% | 1015.1 hPa | 0 mm | - | 977 W/m² | - |
| 1777578758 | 18.33° C | 62% | 1015 hPa | 0 mm | - | 980 W/m² | - |
| 1777578458 | 18.33° C | 62% | 1015 hPa | 0 mm | - | 981 W/m² | - |
| 1777578154 | 17.78° C | 65% | 1015.1 hPa | 0 mm | - | 982 W/m² | - |
| 1777577850 | 17.78° C | 67% | 1015 hPa | 0 mm | - | 983 W/m² | - |
| 1777577545 | 17.78° C | 65% | 1015.2 hPa | 0 mm | - | 982 W/m² | - |
| 1777577243 | 17.78° C | 64% | 1015.3 hPa | 0 mm | - | 980 W/m² | - |
| 1777576939 | 17.22° C | 67% | 1015.1 hPa | 0 mm | - | 981 W/m² | - |
* Rain latest hour (hover to see other rain measurements)
** Current wind speed in m/s (hover to see current wind gust speed)